createdAt,value
2022-09-17T00:04:59.671Z,11.70
2022-09-17T00:10:01.379Z,11.70
2022-09-17T00:15:05.950Z,11.80
2022-09-17T00:20:12.138Z,11.80
2022-09-17T00:25:13.825Z,11.70
2022-09-17T00:30:15.624Z,11.80
2022-09-17T00:35:17.413Z,11.90
2022-09-17T00:40:20.382Z,11.80
2022-09-17T00:45:23.069Z,11.80
2022-09-17T00:50:29.797Z,11.80
2022-09-17T00:55:36.385Z,11.90
2022-09-17T01:00:39.180Z,11.80
2022-09-17T01:06:13.660Z,11.90
2022-09-17T01:11:21.176Z,12.00
2022-09-17T01:16:40.012Z,12.00
2022-09-17T01:21:44.477Z,12.00
2022-09-17T01:26:53.601Z,12.00
2022-09-17T01:32:20.200Z,12.10
2022-09-17T01:37:43.575Z,12.10
2022-09-17T01:42:54.702Z,12.10
2022-09-17T01:48:11.493Z,12.10
2022-09-17T01:53:16.280Z,12.10
2022-09-17T01:58:23.926Z,12.10
2022-09-17T02:03:31.847Z,12.20
2022-09-17T02:08:49.150Z,12.20
2022-09-17T02:14:05.973Z,12.20
2022-09-17T02:19:20.895Z,12.20
2022-09-17T02:24:26.560Z,12.10
2022-09-17T02:29:38.653Z,12.10
2022-09-17T02:34:40.629Z,12.10
2022-09-17T02:39:42.952Z,12.20
2022-09-17T02:45:05.965Z,12.20
2022-09-17T02:50:28.905Z,12.10
2022-09-17T02:55:41.877Z,12.10
2022-09-17T03:00:45.644Z,12.00
2022-09-17T03:05:49.256Z,12.10
2022-09-17T03:10:50.989Z,12.00
2022-09-17T03:15:52.759Z,12.00
2022-09-17T03:20:54.561Z,12.10
2022-09-17T03:25:56.376Z,12.10
2022-09-17T03:30:58.110Z,12.20
2022-09-17T03:36:00.238Z,12.20
2022-09-17T03:41:04.568Z,12.10
2022-09-17T03:46:06.923Z,12.20
2022-09-17T03:51:08.851Z,12.20
2022-09-17T03:56:10.625Z,12.10
2022-09-17T04:01:12.368Z,12.20
2022-09-17T04:06:14.141Z,12.20
2022-09-17T04:11:15.990Z,12.20
2022-09-17T04:16:17.793Z,12.30
2022-09-17T04:21:19.816Z,12.30
2022-09-17T04:26:21.633Z,12.20
2022-09-17T04:31:24.953Z,12.30
2022-09-17T04:36:27.009Z,12.40
2022-09-17T04:41:29.757Z,12.40
2022-09-17T04:46:31.589Z,12.40
2022-09-17T04:51:33.358Z,12.40
2022-09-17T04:56:35.096Z,12.50
2022-09-17T05:01:36.867Z,12.40
2022-09-17T05:06:38.674Z,12.50
2022-09-17T05:11:40.730Z,12.50
2022-09-17T05:16:42.663Z,12.50
2022-09-17T05:21:44.375Z,12.50
2022-09-17T05:26:46.116Z,12.50
2022-09-17T05:31:47.914Z,12.50
2022-09-17T05:36:49.693Z,12.60
2022-09-17T05:41:55.126Z,12.70
2022-09-17T05:46:56.872Z,12.70
2022-09-17T05:51:58.639Z,12.70
2022-09-17T05:57:01.691Z,12.70
2022-09-17T06:02:03.646Z,12.70
2022-09-17T06:07:08.482Z,12.80
2022-09-17T06:12:10.275Z,12.90
2022-09-17T06:17:11.973Z,12.90
2022-09-17T06:22:13.665Z,12.90
2022-09-17T06:27:15.436Z,12.90
2022-09-17T06:32:17.183Z,13.00
2022-09-17T06:37:18.865Z,13.00
2022-09-17T06:42:20.663Z,13.00
2022-09-17T06:47:24.826Z,13.00
2022-09-17T06:52:26.927Z,13.20
2022-09-17T06:57:28.643Z,13.20
2022-09-17T07:02:30.429Z,13.20
2022-09-17T07:07:32.209Z,13.20
2022-09-17T07:12:33.919Z,13.10
2022-09-17T07:17:36.067Z,13.20
2022-09-17T07:22:38.096Z,13.00
2022-09-17T07:27:39.858Z,13.10
2022-09-17T07:32:42.119Z,13.10
2022-09-17T07:37:43.840Z,13.20
2022-09-17T07:42:45.586Z,13.30
2022-09-17T07:47:47.617Z,13.40
2022-09-17T07:52:49.499Z,13.50
2022-09-17T07:57:52.641Z,13.40
2022-09-17T08:02:55.417Z,13.30
2022-09-17T08:07:57.235Z,13.50
2022-09-17T08:12:59.660Z,13.40
2022-09-17T08:18:01.360Z,13.60
2022-09-17T08:23:03.122Z,13.60
2022-09-17T08:28:04.809Z,13.70
2022-09-17T08:33:06.621Z,13.90
2022-09-17T08:38:08.395Z,14.10
2022-09-17T08:43:16.298Z,13.90
2022-09-17T08:48:19.075Z,14.30
2022-09-17T08:53:40.655Z,14.20
2022-09-17T08:59:18.489Z,14.20
2022-09-17T09:04:41.389Z,14.40
2022-09-17T09:09:54.046Z,14.40
2022-09-17T09:15:00.780Z,14.60
2022-09-17T09:20:02.988Z,14.80
2022-09-17T09:25:18.672Z,14.40
2022-09-17T09:30:23.692Z,14.60
2022-09-17T09:35:29.881Z,14.80
2022-09-17T09:40:41.553Z,14.90
2022-09-17T09:46:04.588Z,15.00
2022-09-17T09:51:33.877Z,15.30
2022-09-17T09:56:54.273Z,15.20
2022-09-17T10:01:56.136Z,15.10
2022-09-17T10:07:10.004Z,14.90
2022-09-17T10:12:11.736Z,15.20
2022-09-17T10:17:27.259Z,15.40
2022-09-17T10:22:35.678Z,15.50
2022-09-17T10:27:37.568Z,15.50
2022-09-17T10:32:39.343Z,15.40
2022-09-17T10:37:49.382Z,15.40
2022-09-17T10:43:16.753Z,15.60
2022-09-17T10:48:21.003Z,14.90
2022-09-17T10:53:25.074Z,14.50
2022-09-17T10:58:51.629Z,14.40
2022-09-17T11:03:59.330Z,14.60
2022-09-17T11:09:23.671Z,14.80
2022-09-17T11:14:47.574Z,15.20
2022-09-17T11:20:16.099Z,15.40
2022-09-17T11:25:50.437Z,16.00
2022-09-17T11:31:34.373Z,16.10
2022-09-17T11:36:57.152Z,15.90
2022-09-17T11:42:02.912Z,16.00
2022-09-17T11:47:19.321Z,15.80
2022-09-17T11:52:24.147Z,15.70
2022-09-17T11:57:37.377Z,14.90
2022-09-17T12:03:17.518Z,14.90
2022-09-17T12:08:41.334Z,15.10
2022-09-17T12:14:11.139Z,15.60
2022-09-17T12:19:17.544Z,15.90
2022-09-17T12:24:26.469Z,16.00
2022-09-17T12:30:00.070Z,15.80
2022-09-17T12:35:46.456Z,15.60
2022-09-17T12:41:00.067Z,15.70
2022-09-17T12:46:32.661Z,16.50
2022-09-17T12:52:11.434Z,16.60
2022-09-17T12:57:44.190Z,16.90
2022-09-17T13:03:18.204Z,17.50
2022-09-17T13:08:44.858Z,17.30
2022-09-17T13:14:04.486Z,16.70
2022-09-17T13:19:18.675Z,16.20
2022-09-17T13:24:25.151Z,16.30
2022-09-17T13:29:45.290Z,17.10
2022-09-17T13:34:47.026Z,17.30
2022-09-17T13:39:51.170Z,17.50
2022-09-17T13:45:04.473Z,17.70
2022-09-17T13:50:12.456Z,17.90
2022-09-17T13:55:37.517Z,18.60
2022-09-17T14:00:53.476Z,18.90
2022-09-17T14:05:56.087Z,19.30
2022-09-17T14:11:00.516Z,19.00
2022-09-17T14:16:02.721Z,17.90
2022-09-17T14:21:41.036Z,17.40
2022-09-17T14:27:00.317Z,17.30
2022-09-17T14:32:02.211Z,18.40
2022-09-17T14:37:04.194Z,18.30
2022-09-17T14:42:17.610Z,18.20
2022-09-17T14:47:21.765Z,17.10
2022-09-17T14:52:25.171Z,16.20
2022-09-17T14:57:29.540Z,15.60
2022-09-17T15:02:43.820Z,15.70
2022-09-17T15:07:46.666Z,15.40
2022-09-17T15:12:50.276Z,15.40
2022-09-17T15:17:52.865Z,15.50
2022-09-17T15:23:16.884Z,15.40
2022-09-17T15:28:27.748Z,15.20
2022-09-17T15:33:31.383Z,15.10
2022-09-17T15:38:33.519Z,14.80
2022-09-17T15:43:35.530Z,14.80
2022-09-17T15:48:39.500Z,14.80
2022-09-17T15:53:52.247Z,14.40
2022-09-17T15:58:59.294Z,14.30
2022-09-17T16:04:10.138Z,14.10
2022-09-17T16:09:38.399Z,14.00
2022-09-17T16:14:54.738Z,13.80
2022-09-17T16:19:56.959Z,13.60
2022-09-17T16:24:58.652Z,13.40
2022-09-17T16:30:05.957Z,13.40
2022-09-17T16:35:09.090Z,13.20
2022-09-17T16:40:12.768Z,13.00
2022-09-17T16:45:15.202Z,13.00
2022-09-17T16:50:18.509Z,12.90
2022-09-17T16:55:21.628Z,12.80
2022-09-17T17:00:23.358Z,12.80
2022-09-17T17:05:26.891Z,12.80
2022-09-17T17:10:28.753Z,12.80
2022-09-17T17:15:30.515Z,12.70
2022-09-17T17:20:36.040Z,12.70
2022-09-17T17:25:37.897Z,12.70
2022-09-17T17:30:39.602Z,12.60
2022-09-17T17:35:41.519Z,12.70
2022-09-17T17:40:44.382Z,12.60
2022-09-17T17:45:46.174Z,12.50
2022-09-17T17:50:47.943Z,12.60
2022-09-17T17:56:00.974Z,12.50
2022-09-17T18:01:24.326Z,12.40
2022-09-17T18:06:27.583Z,12.30
2022-09-17T18:11:30.115Z,12.20
2022-09-17T18:16:32.075Z,12.00
2022-09-17T18:21:33.938Z,11.90
2022-09-17T18:26:35.880Z,11.80
2022-09-17T18:31:38.152Z,11.90
2022-09-17T18:36:40.901Z,11.70
2022-09-17T18:41:42.691Z,11.60
2022-09-17T18:46:44.649Z,11.60
2022-09-17T18:51:46.612Z,11.50
2022-09-17T18:56:48.382Z,11.40
2022-09-17T19:01:50.226Z,11.30
2022-09-17T19:06:52.019Z,11.20
2022-09-17T19:11:53.787Z,11.30
2022-09-17T19:16:55.494Z,11.30
2022-09-17T19:21:57.178Z,11.20
2022-09-17T19:27:01.327Z,11.20
2022-09-17T19:32:03.181Z,11.20
2022-09-17T19:37:05.129Z,11.20
2022-09-17T19:42:07.295Z,11.20
2022-09-17T19:47:09.154Z,11.20
2022-09-17T19:52:11.224Z,11.20
2022-09-17T19:57:13.027Z,11.20
2022-09-17T20:02:14.871Z,11.20
2022-09-17T20:07:16.611Z,11.30
2022-09-17T20:12:18.386Z,11.30
2022-09-17T20:17:20.114Z,11.30
2022-09-17T20:22:21.826Z,11.20
2022-09-17T20:27:23.684Z,11.30
2022-09-17T20:32:25.408Z,11.30
2022-09-17T20:38:01.705Z,11.20
2022-09-17T20:42:50.362Z,11.10
2022-09-17T20:47:52.050Z,11.20
2022-09-17T20:52:53.757Z,11.10
2022-09-17T20:57:55.633Z,11.20
2022-09-17T21:02:57.502Z,11.20
2022-09-17T21:07:59.260Z,11.20
2022-09-17T21:13:00.947Z,11.20
2022-09-17T21:18:02.670Z,11.30
2022-09-17T21:23:04.619Z,11.30
2022-09-17T21:28:06.335Z,11.40
2022-09-17T21:33:08.061Z,11.50
2022-09-17T21:38:09.773Z,11.50
2022-09-17T21:43:11.489Z,11.50
2022-09-17T21:48:13.258Z,11.50
2022-09-17T21:53:14.947Z,11.40
2022-09-17T21:58:16.689Z,11.40
2022-09-17T22:03:19.416Z,11.40
2022-09-17T22:08:21.198Z,11.50
2022-09-17T22:13:22.934Z,11.60
2022-09-17T22:18:25.212Z,11.60
2022-09-17T22:23:27.487Z,11.70
2022-09-17T22:28:29.525Z,11.60
2022-09-17T22:33:36.592Z,11.50
2022-09-17T22:38:38.759Z,11.40
2022-09-17T22:43:40.724Z,11.60
2022-09-17T22:48:42.920Z,11.50
2022-09-17T22:53:45.018Z,11.40
2022-09-17T22:58:47.676Z,11.40
2022-09-17T23:03:52.049Z,11.50
2022-09-17T23:08:54.227Z,11.50
2022-09-17T23:13:58.225Z,11.60
2022-09-17T23:18:59.929Z,11.40
2022-09-17T23:24:03.147Z,11.50
2022-09-17T23:29:05.815Z,11.50
2022-09-17T23:34:07.754Z,11.50
2022-09-17T23:39:12.001Z,11.40
2022-09-17T23:44:16.152Z,11.50
2022-09-17T23:49:18.418Z,11.40
2022-09-17T23:54:20.197Z,11.40
2022-09-17T23:59:22.000Z,11.40
